Time;durP1;ratioP1;P1;durP2;ratioP2;P2;SDS_P1;SDS_P2;PMS_P1;PMS_P2;Temp;Humidity;BMP_temperature;BMP_pressure;BME280_temperature;BME280_humidity;BME280_pressure;Samples;Min_cycle;Max_cycle;Signal;HPM_P1;HPM_P2
2023/10/15 00:01:26;;;;;;;11.68;2.03;;;9.00;99.90;;;;;;5056691;28;20043;-77
2023/10/15 00:04:12;;;;;;;11.73;2.90;;;8.90;99.90;;;;;;5046737;28;20079;-74
2023/10/15 00:06:58;;;;;;;13.57;2.60;;;8.90;99.90;;;;;;5043976;28;20039;-75
2023/10/15 00:09:44;;;;;;;11.38;2.63;;;9.00;99.90;;;;;;5061503;28;20037;-78
2023/10/15 00:12:30;;;;;;;17.63;2.83;;;8.90;99.90;;;;;;5059201;28;20032;-77
2023/10/15 00:15:20;;;;;;;12.88;1.98;;;8.90;99.90;;;;;;5028365;28;20174;-77
2023/10/15 00:18:09;;;;;;;14.82;2.70;;;8.90;99.90;;;;;;5065564;28;20036;-78
2023/10/15 00:21:02;;;;;;;13.07;2.08;;;8.90;99.90;;;;;;5043456;28;20041;-77
2023/10/15 00:23:48;;;;;;;17.48;3.22;;;8.90;99.90;;;;;;5039985;28;20062;-77
2023/10/15 00:26:35;;;;;;;17.98;3.20;;;8.90;99.90;;;;;;5069671;28;20051;-77
2023/10/15 00:29:24;;;;;;;11.00;2.08;;;8.80;99.90;;;;;;5057734;28;20043;-78
2023/10/15 00:32:10;;;;;;;16.23;2.60;;;8.80;99.90;;;;;;5053518;28;20040;-78
2023/10/15 00:34:58;;;;;;;12.50;3.05;;;8.90;99.90;;;;;;5053613;28;20033;-78
2023/10/15 00:38:07;;;;;;;9.73;1.90;;;8.80;99.90;;;;;;5058017;28;20056;-78
2023/10/15 00:41:00;;;;;;;17.45;2.78;;;8.80;99.90;;;;;;5044794;28;20048;-78
2023/10/15 00:43:55;;;;;;;19.30;3.20;;;8.80;99.90;;;;;;5045212;28;20075;-77
2023/10/15 00:46:41;;;;;;;16.90;2.42;;;8.70;99.90;;;;;;5056655;28;20051;-77
2023/10/15 00:49:27;;;;;;;10.60;2.05;;;8.80;99.90;;;;;;5070218;28;20415;-77
2023/10/15 00:52:13;;;;;;;12.60;2.75;;;8.80;99.90;;;;;;5083446;28;20043;-77
2023/10/15 00:54:59;;;;;;;11.82;1.98;;;8.70;99.90;;;;;;5079329;28;20044;-77
2023/10/15 00:57:46;;;;;;;12.23;2.05;;;8.80;99.90;;;;;;5080700;28;20040;-78
2023/10/15 01:03:38;;;;;;;11.55;2.33;;;8.70;99.90;;;;;;5083081;28;20055;-77
2023/10/15 01:06:49;;;;;;;11.77;3.08;;;8.70;99.90;;;;;;5078955;28;20050;-78
2023/10/15 01:09:31;;;;;;;;;;;8.70;99.90;;;;;;5085917;28;20040;-78
2023/10/15 01:12:25;;;;;;;13.13;2.42;;;8.70;99.90;;;;;;5100043;28;20243;-78
2023/10/15 01:15:10;;;;;;;14.77;2.30;;;8.60;99.90;;;;;;5085400;28;20071;-78
2023/10/15 01:18:06;;;;;;;12.57;2.63;;;8.70;99.90;;;;;;5084861;28;20050;-78
2023/10/15 01:20:52;;;;;;;13.85;2.50;;;8.60;99.90;;;;;;5092070;28;20043;-78
2023/10/15 01:26:34;;;;;;;15.90;2.50;;;8.60;99.90;;;;;;5073365;28;20101;-78
2023/10/15 01:29:23;;;;;;;15.63;2.38;;;8.60;99.90;;;;;;5060480;28;20055;-77
2023/10/15 01:32:18;;;;;;;15.77;2.47;;;8.50;99.90;;;;;;5066165;28;20028;-77
2023/10/15 01:35:10;;;;;;;10.93;2.20;;;8.50;99.90;;;;;;5081037;28;20027;-78
2023/10/15 01:38:44;;;;;;;10.60;2.05;;;8.60;99.90;;;;;;5062205;28;20111;-77
2023/10/15 01:41:04;;;;;;;11.32;2.03;;;8.50;99.90;;;;;;5105272;28;20066;-77
2023/10/15 01:43:50;;;;;;;11.80;2.70;;;8.50;99.90;;;;;;5092278;28;20036;-77
2023/10/15 01:49:31;;;;;;;13.02;2.58;;;8.50;99.90;;;;;;5082576;28;20046;-78
2023/10/15 01:52:29;;;;;;;12.88;2.45;;;8.50;99.90;;;;;;5069256;28;20067;-77
2023/10/15 01:55:17;;;;;;;10.57;2.10;;;8.50;99.90;;;;;;5073984;28;20150;-77
2023/10/15 01:58:04;;;;;;;22.58;4.72;;;8.40;99.90;;;;;;5085621;28;20047;-78
2023/10/15 02:00:51;;;;;;;13.50;2.53;;;8.50;99.90;;;;;;5051756;28;20055;-78
2023/10/15 02:03:37;;;;;;;12.90;2.35;;;8.40;99.90;;;;;;5077313;28;20096;-77
2023/10/15 02:06:25;;;;;;;11.30;2.13;;;8.40;99.90;;;;;;5082774;28;20044;-78
2023/10/15 02:09:13;;;;;;;14.27;2.70;;;8.50;99.90;;;;;;5061366;28;20042;-78
2023/10/15 02:11:59;;;;;;;15.80;2.15;;;8.40;99.90;;;;;;5071493;28;20119;-78
2023/10/15 02:14:47;;;;;;;15.35;3.33;;;8.40;99.90;;;;;;5093190;28;20050;-78
2023/10/15 02:17:34;;;;;;;;;;;8.40;99.90;;;;;;5085247;28;20035;-78
2023/10/15 02:20:42;;;;;;;11.18;2.40;;;8.30;99.90;;;;;;5083351;28;19923;-78
2023/10/15 02:23:26;;;;;;;10.50;2.42;;;8.30;99.90;;;;;;5070647;28;20086;-78
2023/10/15 02:26:13;;;;;;;18.75;2.50;;;8.30;99.90;;;;;;5084439;28;20059;-77
2023/10/15 02:29:06;;;;;;;12.10;2.90;;;8.30;99.90;;;;;;5097434;28;20434;-78
2023/10/15 02:31:52;;;;;;;14.65;2.80;;;8.30;99.90;;;;;;5086189;28;20686;-78
2023/10/15 02:34:40;;;;;;;11.80;2.05;;;8.20;99.90;;;;;;5075445;28;20642;-78
2023/10/15 02:37:27;;;;;;;14.93;3.25;;;8.20;99.90;;;;;;5086291;28;20031;-78
2023/10/15 02:40:17;;;;;;;10.32;2.42;;;8.20;99.90;;;;;;5082488;28;20048;-78
2023/10/15 02:43:06;;;;;;;10.85;2.22;;;8.20;99.90;;;;;;5075869;28;20576;-78
2023/10/15 02:45:53;;;;;;;13.27;2.53;;;8.20;99.90;;;;;;5068202;28;20100;-78
2023/10/15 02:48:41;;;;;;;15.10;2.50;;;8.20;99.90;;;;;;5101591;28;20082;-78
2023/10/15 02:51:27;;;;;;;10.90;2.47;;;8.30;99.90;;;;;;5088410;28;20043;-78
2023/10/15 02:54:26;;;;;;;14.38;3.22;;;8.20;99.90;;;;;;5068656;28;20051;-78
2023/10/15 02:57:15;;;;;;;11.07;3.45;;;8.30;99.90;;;;;;5090885;28;20090;-78
2023/10/15 03:00:12;;;;;;;11.43;2.20;;;8.30;99.90;;;;;;5074663;28;20036;-77
2023/10/15 03:02:58;;;;;;;17.60;2.88;;;8.30;99.90;;;;;;5071823;28;20036;-77
2023/10/15 03:05:46;;;;;;;11.07;2.20;;;8.30;99.90;;;;;;5068098;28;20077;-78
2023/10/15 03:08:33;;;;;;;12.30;3.05;;;8.30;99.90;;;;;;5087466;28;20089;-78
2023/10/15 03:11:20;;;;;;;15.68;3.20;;;8.40;99.90;;;;;;5080388;28;20065;-78
2023/10/15 03:14:06;;;;;;;16.43;3.10;;;8.30;99.90;;;;;;5073514;27;20032;-78
2023/10/15 03:16:56;;;;;;;13.27;2.50;;;8.30;99.90;;;;;;5079832;28;20075;-74
2023/10/15 03:19:43;;;;;;;20.38;3.17;;;8.30;99.90;;;;;;5070963;28;20392;-74
2023/10/15 03:22:30;;;;;;;16.02;2.75;;;8.30;99.90;;;;;;5063799;28;20036;-74
2023/10/15 03:25:17;;;;;;;11.07;2.50;;;8.30;99.90;;;;;;5081329;28;20058;-75
2023/10/15 03:28:07;;;;;;;16.73;2.42;;;8.30;99.90;;;;;;5073814;28;20032;-74
2023/10/15 03:30:56;;;;;;;11.13;2.10;;;8.30;99.90;;;;;;5083226;28;20127;-74
2023/10/15 03:34:03;;;;;;;8.77;2.15;;;8.30;99.90;;;;;;5087504;28;20040;-74
2023/10/15 03:37:00;;;;;;;13.20;2.60;;;8.30;99.90;;;;;;5096547;28;20039;-74
2023/10/15 03:39:55;;;;;;;12.55;2.28;;;8.30;99.90;;;;;;5089521;28;20042;-74
2023/10/15 03:42:41;;;;;;;16.02;3.03;;;8.20;99.90;;;;;;5087204;28;20563;-74
2023/10/15 03:45:28;;;;;;;13.93;2.40;;;8.30;99.90;;;;;;5106609;27;20045;-74
2023/10/15 03:48:14;;;;;;;13.90;2.15;;;8.20;99.90;;;;;;5093678;27;20065;-74
2023/10/15 03:51:05;;;;;;;18.63;2.97;;;8.20;99.90;;;;;;5067761;28;20040;-74
2023/10/15 03:53:51;;;;;;;11.88;2.35;;;8.20;99.90;;;;;;5088291;28;20038;-74
2023/10/15 03:56:37;;;;;;;12.98;2.80;;;8.20;99.90;;;;;;5073772;28;20066;-74
2023/10/15 03:59:26;;;;;;;7.40;2.35;;;8.20;99.90;;;;;;5056867;28;20040;-74
2023/10/15 04:02:22;;;;;;;9.85;2.75;;;8.20;99.90;;;;;;5088413;28;20035;-74
2023/10/15 04:05:10;;;;;;;12.88;2.47;;;8.20;99.90;;;;;;5101137;28;20514;-74
2023/10/15 04:07:56;;;;;;;18.10;3.13;;;8.20;99.90;;;;;;5088607;28;20035;-74
2023/10/15 04:10:42;;;;;;;9.90;2.40;;;8.20;99.90;;;;;;5106231;27;20035;-74
2023/10/15 04:13:28;;;;;;;12.13;2.47;;;8.20;99.90;;;;;;5084170;28;20506;-74
2023/10/15 04:16:14;;;;;;;12.70;2.42;;;8.20;99.90;;;;;;5089683;28;20073;-74
2023/10/15 04:19:00;;;;;;;9.48;2.05;;;8.20;99.90;;;;;;5093707;28;20047;-74
2023/10/15 04:21:47;;;;;;;11.38;2.08;;;8.20;99.90;;;;;;5075111;28;20139;-74
2023/10/15 04:24:39;;;;;;;13.30;3.38;;;8.20;99.90;;;;;;5068314;28;20040;-74
2023/10/15 04:27:27;;;;;;;15.38;2.30;;;8.20;99.90;;;;;;5083259;28;20189;-74
2023/10/15 04:30:14;;;;;;;10.43;2.00;;;8.20;99.90;;;;;;5074694;28;20043;-74
2023/10/15 04:33:00;;;;;;;11.50;1.90;;;8.20;99.90;;;;;;5072375;28;20090;-74
2023/10/15 04:35:49;;;;;;;13.48;2.60;;;8.20;99.90;;;;;;5101995;28;20043;-74
2023/10/15 04:38:38;;;;;;;13.15;2.25;;;8.10;99.90;;;;;;5056137;28;20071;-74
2023/10/15 04:41:24;;;;;;;10.55;1.80;;;8.20;99.90;;;;;;5068476;28;20036;-74
2023/10/15 04:44:19;;;;;;;10.60;1.92;;;8.20;99.90;;;;;;5083188;28;20039;-74
2023/10/15 04:47:06;;;;;;;8.68;2.38;;;8.20;99.90;;;;;;5071460;28;20047;-74
2023/10/15 04:49:56;;;;;;;7.85;2.20;;;8.20;99.90;;;;;;5100190;28;20530;-74
2023/10/15 04:52:43;;;;;;;9.73;2.30;;;8.20;99.90;;;;;;5073907;28;20368;-74
2023/10/15 04:55:29;;;;;;;8.15;2.08;;;8.10;99.90;;;;;;5073315;28;20046;-74
2023/10/15 04:58:15;;;;;;;7.20;2.00;;;8.10;99.90;;;;;;5068455;28;20766;-74
2023/10/15 05:01:03;;;;;;;12.10;2.00;;;8.10;99.90;;;;;;5066457;28;20040;-74
2023/10/15 05:03:49;;;;;;;8.25;1.67;;;8.10;99.90;;;;;;5082356;28;20039;-74
2023/10/15 05:06:36;;;;;;;8.05;2.17;;;8.10;99.90;;;;;;5072418;28;20043;-74
2023/10/15 05:09:22;;;;;;;7.72;1.25;;;8.10;99.90;;;;;;5053810;28;20036;-74
2023/10/15 05:12:08;;;;;;;6.60;1.73;;;8.10;99.90;;;;;;5066299;28;20044;-74
2023/10/15 05:14:55;;;;;;;7.40;1.30;;;8.10;99.90;;;;;;5078260;28;20047;-74
2023/10/15 05:17:43;;;;;;;5.70;1.50;;;8.10;99.90;;;;;;5080258;28;20192;-77
2023/10/15 05:20:29;;;;;;;7.03;1.20;;;8.10;99.90;;;;;;5097705;28;20467;-77
2023/10/15 05:23:18;;;;;;;4.78;1.25;;;8.10;99.90;;;;;;5080612;28;20129;-78
2023/10/15 05:26:05;;;;;;;5.95;1.48;;;8.10;99.90;;;;;;5078014;28;20043;-76
2023/10/15 05:28:51;;;;;;;5.90;1.63;;;8.10;99.90;;;;;;5052995;28;20446;-77
2023/10/15 05:31:37;;;;;;;5.93;1.50;;;8.10;99.90;;;;;;5074774;28;20469;-77
2023/10/15 05:34:23;;;;;;;3.95;1.25;;;8.10;99.90;;;;;;5052572;28;20094;-76
2023/10/15 05:37:09;;;;;;;6.05;1.42;;;8.10;99.90;;;;;;5083326;28;20039;-77
2023/10/15 05:39:55;;;;;;;7.30;1.20;;;8.10;99.90;;;;;;5063962;28;20115;-77
2023/10/15 05:42:41;;;;;;;7.38;1.73;;;8.00;99.90;;;;;;5064339;28;20782;-78
2023/10/15 05:45:27;;;;;;;5.72;1.60;;;8.10;99.90;;;;;;5096207;28;20031;-78
2023/10/15 05:48:13;;;;;;;7.53;1.50;;;8.00;99.90;;;;;;5038584;28;20072;-76
2023/10/15 05:51:01;;;;;;;7.05;1.50;;;8.00;99.90;;;;;;5045303;28;20403;-78
2023/10/15 05:53:47;;;;;;;5.72;1.52;;;8.00;99.90;;;;;;5065418;28;20786;-77
2023/10/15 05:56:33;;;;;;;7.20;1.65;;;8.00;99.90;;;;;;5044193;28;20134;-77
2023/10/15 05:59:19;;;;;;;9.20;1.33;;;8.00;99.90;;;;;;5070826;28;20040;-77
2023/10/15 06:02:05;;;;;;;6.90;1.80;;;8.00;99.90;;;;;;5052934;28;20036;-77
2023/10/15 06:04:51;;;;;;;10.43;2.30;;;8.00;99.90;;;;;;5054464;28;20110;-77
2023/10/15 06:07:37;;;;;;;7.22;1.92;;;8.00;99.90;;;;;;5037910;28;20346;-76
2023/10/15 06:10:23;;;;;;;7.53;1.30;;;7.90;99.90;;;;;;5060529;28;20052;-77
2023/10/15 06:13:09;;;;;;;6.25;1.50;;;7.90;99.90;;;;;;5037665;28;20037;-76
2023/10/15 06:15:56;;;;;;;8.13;1.33;;;7.90;99.90;;;;;;5057844;28;20036;-76
2023/10/15 06:18:42;;;;;;;5.28;1.30;;;7.90;99.90;;;;;;5074907;28;20068;-74
2023/10/15 06:21:28;;;;;;;9.35;1.38;;;7.90;99.90;;;;;;5036213;28;20095;-74
2023/10/15 06:24:14;;;;;;;4.35;1.17;;;7.90;99.90;;;;;;5050941;28;20028;-74
2023/10/15 06:27:00;;;;;;;3.70;1.00;;;7.90;99.90;;;;;;5058117;28;20116;-75
2023/10/15 06:29:46;;;;;;;5.40;1.27;;;7.90;99.90;;;;;;5071606;28;20033;-75
2023/10/15 06:32:32;;;;;;;7.43;0.90;;;7.90;99.90;;;;;;5065602;28;20112;-75
2023/10/15 06:35:21;;;;;;;5.78;0.98;;;7.80;99.90;;;;;;5071333;28;20614;-75
2023/10/15 06:38:07;;;;;;;7.47;1.73;;;7.90;99.90;;;;;;5056791;28;20044;-78
2023/10/15 06:40:53;;;;;;;3.85;1.20;;;7.90;99.90;;;;;;5059666;28;20067;-78
2023/10/15 06:43:39;;;;;;;6.95;1.25;;;7.80;99.90;;;;;;5046815;28;20040;-78
2023/10/15 06:46:26;;;;;;;4.90;1.30;;;7.80;99.90;;;;;;5062744;28;20576;-78
2023/10/15 06:49:12;;;;;;;4.90;1.15;;;7.80;99.90;;;;;;5089482;28;20035;-78
2023/10/15 06:51:58;;;;;;;6.25;1.48;;;7.80;99.90;;;;;;5092293;28;20135;-78
2023/10/15 06:54:44;;;;;;;5.70;1.35;;;7.80;99.90;;;;;;5055642;28;20040;-78
2023/10/15 06:57:30;;;;;;;3.58;0.90;;;7.90;99.90;;;;;;5070562;28;20044;-77
2023/10/15 07:00:22;;;;;;;4.03;0.80;;;7.80;99.90;;;;;;5070926;28;20055;-78
2023/10/15 07:03:08;;;;;;;3.70;1.13;;;7.90;99.90;;;;;;5062188;28;20048;-78
2023/10/15 07:05:54;;;;;;;4.95;0.93;;;7.90;99.90;;;;;;5074301;28;20039;-78
2023/10/15 07:08:41;;;;;;;3.97;0.88;;;7.90;99.90;;;;;;5081098;28;20050;-78
2023/10/15 07:11:27;;;;;;;4.78;0.90;;;7.90;99.90;;;;;;5082259;28;20085;-78
2023/10/15 07:14:13;;;;;;;2.92;1.02;;;8.00;99.90;;;;;;5072865;28;20043;-78
2023/10/15 07:16:59;;;;;;;3.28;0.98;;;8.00;99.90;;;;;;5086844;28;20040;-78
2023/10/15 07:19:45;;;;;;;4.38;0.90;;;8.10;99.90;;;;;;5079307;28;20117;-77
2023/10/15 07:22:31;;;;;;;4.75;1.25;;;8.00;99.90;;;;;;5082291;28;20058;-78
2023/10/15 07:25:20;;;;;;;6.88;1.17;;;8.00;99.90;;;;;;5083300;28;20047;-78
2023/10/15 07:28:06;;;;;;;5.63;0.90;;;8.00;99.90;;;;;;5087630;28;20118;-78
2023/10/15 07:30:52;;;;;;;7.28;1.10;;;8.00;99.90;;;;;;5100703;28;20069;-78
2023/10/15 07:33:39;;;;;;;3.13;0.90;;;8.00;99.90;;;;;;5091199;28;20032;-77
2023/10/15 07:36:26;;;;;;;2.78;0.77;;;8.10;99.90;;;;;;5101038;28;20039;-78
2023/10/15 07:39:11;;;;;;;4.38;1.20;;;8.00;99.90;;;;;;5053620;28;20036;-78
2023/10/15 07:41:58;;;;;;;4.78;0.93;;;8.00;99.90;;;;;;5084482;28;20143;-77
2023/10/15 07:44:44;;;;;;;4.55;0.80;;;8.10;99.90;;;;;;5070325;28;20072;-78
2023/10/15 07:47:30;;;;;;;3.33;0.73;;;8.20;99.90;;;;;;5056069;28;20705;-77
2023/10/15 07:50:23;;;;;;;4.57;0.77;;;8.20;99.90;;;;;;5062635;28;20032;-78
2023/10/15 07:53:09;;;;;;;4.88;0.70;;;8.10;99.90;;;;;;5055222;28;20029;-78
2023/10/15 07:55:55;;;;;;;4.63;1.10;;;8.20;99.90;;;;;;5049336;28;20110;-78
2023/10/15 07:58:41;;;;;;;7.43;1.35;;;8.20;99.90;;;;;;5060111;28;20040;-77
2023/10/15 08:01:27;;;;;;;3.67;0.80;;;8.30;99.90;;;;;;5052371;28;20362;-77
2023/10/15 08:04:13;;;;;;;2.85;0.93;;;8.30;99.90;;;;;;5067406;28;20477;-77
2023/10/15 08:07:00;;;;;;;3.15;0.93;;;8.30;99.90;;;;;;5052738;28;20036;-77
2023/10/15 08:09:46;;;;;;;3.20;1.10;;;8.40;99.90;;;;;;5042255;28;20525;-77
2023/10/15 08:12:32;;;;;;;6.82;0.98;;;8.50;99.90;;;;;;5067024;28;20048;-78
2023/10/15 08:15:18;;;;;;;2.47;0.73;;;8.50;99.90;;;;;;5026985;28;20045;-78
2023/10/15 08:18:04;;;;;;;3.28;0.68;;;8.50;99.90;;;;;;5044596;28;20032;-78
2023/10/15 08:20:50;;;;;;;2.75;0.75;;;8.50;99.90;;;;;;5059328;28;20059;-77
2023/10/15 08:23:38;;;;;;;3.50;0.80;;;8.50;99.90;;;;;;5045826;28;20041;-77
2023/10/15 08:26:24;;;;;;;6.90;1.17;;;8.50;99.90;;;;;;5040648;28;20056;-77
2023/10/15 08:29:10;;;;;;;4.45;1.20;;;8.50;99.90;;;;;;5027638;28;20124;-78
2023/10/15 08:31:56;;;;;;;2.90;0.73;;;8.50;99.90;;;;;;5050938;28;20036;-79
2023/10/15 08:34:44;;;;;;;3.63;0.80;;;8.50;99.90;;;;;;5040746;28;20127;-78
2023/10/15 08:37:30;;;;;;;5.28;1.00;;;8.50;99.90;;;;;;5048957;28;20122;-79
2023/10/15 08:40:16;;;;;;;4.28;0.80;;;8.60;99.90;;;;;;5043517;28;20109;-78
2023/10/15 08:43:09;;;;;;;3.13;0.73;;;8.60;99.90;;;;;;5047582;28;20847;-79
2023/10/15 08:45:58;;;;;;;3.25;0.90;;;8.70;99.90;;;;;;5056007;28;20111;-78
2023/10/15 08:48:44;;;;;;;3.42;0.80;;;8.70;99.90;;;;;;5070767;28;20123;-79
2023/10/15 08:51:34;;;;;;;5.00;1.25;;;8.70;99.90;;;;;;5052753;28;20028;-79
2023/10/15 08:54:25;;;;;;;3.83;1.17;;;8.70;99.90;;;;;;5066133;28;20362;-79
2023/10/15 08:57:11;;;;;;;2.85;0.90;;;8.80;99.90;;;;;;5046230;28;20039;-79
2023/10/15 08:59:57;;;;;;;3.65;1.20;;;8.80;99.90;;;;;;5046092;28;20037;-79
2023/10/15 09:02:43;;;;;;;2.15;0.70;;;9.00;99.90;;;;;;5036879;28;20044;-79
2023/10/15 09:05:40;;;;;;;3.08;0.88;;;8.90;99.90;;;;;;5068354;28;20473;-79
2023/10/15 09:08:28;;;;;;;4.65;0.70;;;8.90;99.90;;;;;;5041782;28;20123;-79
2023/10/15 09:11:16;;;;;;;2.70;1.10;;;8.90;99.90;;;;;;5035813;28;20036;-79
2023/10/15 09:14:02;;;;;;;5.80;1.10;;;8.90;99.90;;;;;;5072520;28;20037;-78
2023/10/15 09:16:48;;;;;;;2.88;0.82;;;8.90;99.90;;;;;;5058906;28;20102;-78
2023/10/15 09:19:34;;;;;;;6.75;1.17;;;8.90;99.90;;;;;;5054407;28;20075;-79
2023/10/15 09:22:20;;;;;;;3.30;0.90;;;8.90;99.90;;;;;;5045171;28;20040;-79
2023/10/15 09:25:07;;;;;;;6.05;0.90;;;9.00;99.90;;;;;;5051430;28;20044;-79
2023/10/15 09:27:53;;;;;;;1.67;1.00;;;8.90;99.90;;;;;;5027095;28;20040;-78
2023/10/15 09:30:39;;;;;;;4.97;1.15;;;8.90;99.90;;;;;;5037599;28;20044;-79
2023/10/15 09:33:29;;;;;;;3.90;1.13;;;8.90;99.90;;;;;;5039821;28;20044;-79
2023/10/15 09:36:15;;;;;;;5.20;1.05;;;9.00;99.90;;;;;;5025596;28;20474;-79
2023/10/15 09:39:12;;;;;;;3.35;1.20;;;9.00;99.90;;;;;;5043660;28;20044;-79
2023/10/15 09:42:02;;;;;;;3.38;1.00;;;9.10;99.90;;;;;;5069434;28;20361;-79
2023/10/15 09:44:48;;;;;;;4.65;1.67;;;9.10;99.90;;;;;;5050450;28;20044;-79
2023/10/15 09:47:39;;;;;;;3.58;0.93;;;9.10;99.90;;;;;;5056066;28;20427;-80
2023/10/15 09:50:27;;;;;;;4.72;0.90;;;9.10;99.90;;;;;;5042454;28;20115;-78
2023/10/15 09:53:16;;;;;;;2.33;0.95;;;9.00;99.90;;;;;;5065824;28;20040;-79
2023/10/15 09:56:07;;;;;;;5.53;1.20;;;9.00;99.90;;;;;;5046257;28;20366;-79
2023/10/15 09:58:53;;;;;;;3.55;1.05;;;9.00;99.90;;;;;;5054416;28;20040;-79
2023/10/15 10:01:44;;;;;;;4.55;1.20;;;9.00;99.90;;;;;;5058768;28;20151;-78
2023/10/15 10:04:52;;;;;;;4.15;1.10;;;9.00;99.90;;;;;;5045467;28;20044;-79
2023/10/15 10:07:47;;;;;;;5.32;1.20;;;8.90;99.90;;;;;;5058906;28;20632;-79
2023/10/15 10:10:57;;;;;;;4.22;1.05;;;9.00;99.90;;;;;;5078291;28;20036;-79
2023/10/15 10:14:02;;;;;;;2.90;1.08;;;9.00;99.90;;;;;;5059112;28;20123;-79
2023/10/15 10:16:48;;;;;;;5.32;1.02;;;9.10;99.90;;;;;;5050928;28;20080;-79
2023/10/15 10:19:34;;;;;;;4.07;0.95;;;9.20;99.90;;;;;;5064740;28;20036;-78
2023/10/15 10:22:23;;;;;;;2.67;0.95;;;9.10;99.90;;;;;;5063808;28;20040;-77
2023/10/15 10:25:11;;;;;;;4.65;1.13;;;9.20;99.90;;;;;;5049509;28;20137;-79
2023/10/15 10:28:22;;;;;;;3.38;1.00;;;9.20;99.90;;;;;;5064709;28;20091;-79
2023/10/15 10:31:09;;;;;;;9.88;1.40;;;9.20;99.90;;;;;;5058507;28;20124;-78
2023/10/15 10:33:56;;;;;;;5.75;1.67;;;9.20;99.90;;;;;;5029483;28;20071;-79
2023/10/15 10:36:42;;;;;;;5.32;1.63;;;9.20;99.90;;;;;;5063251;28;20037;-79
2023/10/15 10:39:43;;;;;;;;;;;9.20;99.90;;;;;;5059260;28;20057;-79
2023/10/15 10:42:30;;;;;;;3.42;1.33;;;9.20;99.90;;;;;;5062306;28;19912;-79
2023/10/15 10:46:06;;;;;;;5.07;1.60;;;9.40;99.90;;;;;;5064158;28;20118;-80
2023/10/15 10:49:06;;;;;;;3.72;1.02;;;9.60;99.90;;;;;;5029928;28;20049;-79
2023/10/15 10:52:17;;;;;;;3.65;0.90;;;9.60;99.90;;;;;;5060519;28;20040;-79
2023/10/15 10:55:33;;;;;;;4.38;1.00;;;9.50;99.90;;;;;;5068328;28;20079;-78
2023/10/15 10:58:24;;;;;;;6.82;1.40;;;9.50;99.90;;;;;;5058820;28;20048;-79
2023/10/15 11:01:10;;;;;;;3.97;1.13;;;9.50;99.90;;;;;;5043611;28;20048;-79
2023/10/15 11:03:56;;;;;;;6.07;1.20;;;9.50;99.90;;;;;;5073043;28;20051;-79
2023/10/15 11:06:45;;;;;;;3.30;0.80;;;9.50;99.90;;;;;;5062057;28;20174;-78
2023/10/15 11:09:31;;;;;;;3.50;0.95;;;9.40;99.90;;;;;;5050925;28;20037;-79
2023/10/15 11:12:18;;;;;;;2.88;0.80;;;9.40;99.90;;;;;;5061567;28;20086;-79
2023/10/15 11:15:08;;;;;;;2.95;0.85;;;9.40;99.90;;;;;;5061040;28;20036;-79
2023/10/15 11:17:57;;;;;;;2.60;0.90;;;9.60;99.90;;;;;;5047890;28;20519;-79
2023/10/15 11:20:44;;;;;;;2.58;0.90;;;9.60;99.90;;;;;;5052788;28;20051;-79
2023/10/15 11:23:30;;;;;;;2.78;0.80;;;9.60;99.90;;;;;;5062166;28;20040;-76
2023/10/15 11:26:18;;;;;;;4.10;0.90;;;9.50;99.90;;;;;;5057666;28;20049;-76
2023/10/15 11:29:04;;;;;;;3.28;0.90;;;9.40;99.90;;;;;;5056475;28;20052;-75
2023/10/15 11:31:53;;;;;;;5.28;0.80;;;9.40;99.90;;;;;;5045948;28;20032;-76
2023/10/15 11:34:39;;;;;;;5.65;1.30;;;9.00;99.90;;;;;;5064704;28;20590;-76
2023/10/15 11:37:25;;;;;;;3.92;0.93;;;8.90;99.90;;;;;;5058952;28;20033;-75
2023/10/15 11:40:13;;;;;;;1.85;0.68;;;8.70;99.90;;;;;;5058265;28;20077;-75
2023/10/15 11:42:59;;;;;;;2.53;0.57;;;8.50;99.90;;;;;;5064708;28;20122;-75
2023/10/15 11:45:47;;;;;;;2.80;0.73;;;8.30;99.90;;;;;;5048997;28;20048;-75
2023/10/15 11:48:33;;;;;;;2.08;0.52;;;8.00;99.90;;;;;;5044581;28;20111;-75
2023/10/15 11:51:22;;;;;;;2.90;0.50;;;7.90;99.90;;;;;;5059113;28;20087;-75
2023/10/15 11:54:09;;;;;;;2.33;0.90;;;7.80;99.90;;;;;;5051658;28;20029;-75
2023/10/15 11:56:56;;;;;;;1.65;0.70;;;7.90;99.90;;;;;;5054009;28;20047;-75
2023/10/15 11:59:45;;;;;;;1.77;0.52;;;8.00;99.90;;;;;;5029838;28;20036;-75
2023/10/15 12:02:32;;;;;;;2.35;0.70;;;8.00;99.90;;;;;;5066258;28;20079;-76
2023/10/15 12:05:19;;;;;;;4.80;0.95;;;7.90;99.90;;;;;;5044470;28;20465;-76
2023/10/15 12:08:06;;;;;;;;;;;8.00;99.90;;;;;;5059851;28;20127;-75
2023/10/15 12:10:52;;;;;;;1.17;0.63;;;7.90;99.90;;;;;;5047189;28;20324;-76
2023/10/15 12:13:41;;;;;;;2.42;0.50;;;8.00;99.90;;;;;;5073375;28;20036;-75
2023/10/15 12:16:27;;;;;;;2.15;0.80;;;8.00;99.90;;;;;;5054224;28;20041;-76
2023/10/15 12:19:13;;;;;;;2.08;1.17;;;8.00;99.90;;;;;;5051631;28;20136;-76
2023/10/15 12:21:59;;;;;;;3.38;1.30;;;8.20;99.90;;;;;;5051229;28;20059;-76
2023/10/15 12:24:46;;;;;;;3.72;0.73;;;9.00;99.90;;;;;;5073206;28;20052;-76
2023/10/15 12:27:32;;;;;;;1.77;0.70;;;9.60;99.90;;;;;;5071536;28;20493;-77
2023/10/15 12:30:28;;;;;;;2.05;0.70;;;10.20;99.90;;;;;;5046021;28;20182;-76
2023/10/15 12:33:15;;;;;;;2.03;0.70;;;10.60;99.90;;;;;;5055265;28;20477;-79
2023/10/15 12:36:02;;;;;;;2.65;1.00;;;11.10;99.90;;;;;;5069174;28;20104;-79
2023/10/15 12:38:48;;;;;;;1.58;0.70;;;11.30;99.90;;;;;;5041607;28;20746;-79
2023/10/15 12:41:38;;;;;;;5.18;1.30;;;11.60;99.90;;;;;;5048631;28;20049;-80
2023/10/15 12:44:26;;;;;;;2.10;0.90;;;12.10;99.90;;;;;;5062921;28;20036;-80
2023/10/15 12:47:12;;;;;;;6.18;0.90;;;12.20;99.90;;;;;;5050754;28;20048;-80
2023/10/15 12:49:58;;;;;;;3.60;1.15;;;12.40;99.90;;;;;;5047014;28;20037;-79
2023/10/15 12:52:45;;;;;;;4.78;0.93;;;12.70;99.90;;;;;;5041324;28;20413;-79
2023/10/15 12:55:31;;;;;;;2.40;0.95;;;13.20;99.90;;;;;;5047146;28;20134;-80
2023/10/15 12:58:17;;;;;;;5.75;1.35;;;13.60;99.90;;;;;;5075709;28;21045;-80
2023/10/15 13:01:05;;;;;;;3.22;1.20;;;13.80;99.90;;;;;;5073792;28;20485;-79
2023/10/15 13:03:51;;;;;;;7.18;2.20;;;13.70;99.90;;;;;;5032190;28;20079;-79
2023/10/15 13:06:37;;;;;;;6.78;2.70;;;14.00;99.90;;;;;;5072257;28;20040;-79
2023/10/15 13:09:26;;;;;;;5.00;2.40;;;13.90;99.90;;;;;;5072647;28;20425;-79
2023/10/15 13:12:12;;;;;;;8.32;3.47;;;14.10;99.90;;;;;;5072769;28;20063;-79
2023/10/15 13:14:58;;;;;;;6.10;2.50;;;14.10;99.90;;;;;;5059407;28;20052;-78
2023/10/15 13:17:45;;;;;;;3.13;0.85;;;13.50;99.90;;;;;;5052446;28;20389;-78
2023/10/15 13:20:31;;;;;;;4.50;1.63;;;13.30;99.90;;;;;;5039030;28;20040;-78
2023/10/15 13:23:17;;;;;;;2.58;0.98;;;13.20;99.90;;;;;;5057728;28;20473;-78
2023/10/15 13:26:08;;;;;;;6.45;1.30;;;12.70;99.90;;;;;;5044750;28;20106;-78
2023/10/15 13:28:54;;;;;;;3.58;1.00;;;12.20;99.90;;;;;;5052019;28;20437;-78
2023/10/15 13:31:40;;;;;;;4.30;0.90;;;11.80;99.90;;;;;;5052748;28;20044;-78
2023/10/15 13:34:26;;;;;;;6.30;1.70;;;11.50;99.90;;;;;;5064075;28;20037;-77
2023/10/15 13:37:12;;;;;;;5.88;1.70;;;11.30;99.90;;;;;;5038403;28;20040;-79
2023/10/15 13:39:58;;;;;;;5.43;1.73;;;11.10;99.90;;;;;;5051729;28;20036;-79
2023/10/15 13:42:47;;;;;;;2.08;0.90;;;10.80;99.90;;;;;;5035354;28;20052;-78
2023/10/15 13:45:34;;;;;;;4.60;1.30;;;10.60;99.90;;;;;;5058075;28;20087;-78
2023/10/15 13:48:20;;;;;;;3.47;0.70;;;10.50;99.90;;;;;;5051600;28;20466;-78
2023/10/15 13:51:07;;;;;;;5.30;2.33;;;10.60;99.90;;;;;;5052397;28;20048;-79
2023/10/15 13:53:53;;;;;;;3.60;1.40;;;10.70;99.90;;;;;;5034292;28;20041;-78
2023/10/15 13:56:41;;;;;;;6.05;1.15;;;10.60;99.90;;;;;;5056188;28;20032;-78
2023/10/15 13:59:27;;;;;;;3.05;0.90;;;10.50;99.90;;;;;;5066097;28;20496;-73
2023/10/15 14:02:15;;;;;;;5.47;1.10;;;10.50;99.90;;;;;;5024871;28;20149;-74
2023/10/15 14:05:05;;;;;;;4.97;1.30;;;10.50;99.90;;;;;;5054179;28;20205;-74
2023/10/15 14:07:52;;;;;;;4.28;2.17;;;10.80;99.90;;;;;;5068948;28;20110;-74
2023/10/15 14:10:38;;;;;;;4.53;1.13;;;11.10;99.90;;;;;;5055615;28;20044;-75
2023/10/15 14:13:26;;;;;;;1.45;0.70;;;11.10;99.90;;;;;;5024486;28;20053;-75
2023/10/15 14:16:13;;;;;;;3.05;0.82;;;11.10;99.90;;;;;;5037506;28;20037;-76
2023/10/15 14:18:59;;;;;;;1.38;0.65;;;11.30;99.90;;;;;;5051808;28;20064;-76
2023/10/15 14:21:45;;;;;;;3.22;0.70;;;11.40;99.90;;;;;;5054142;28;20044;-76
2023/10/15 14:24:31;;;;;;;5.60;1.20;;;11.40;99.90;;;;;;5050284;28;20116;-76
2023/10/15 14:27:17;;;;;;;3.78;1.08;;;11.40;99.90;;;;;;5051734;28;20124;-76
2023/10/15 14:30:07;;;;;;;3.78;1.00;;;11.30;99.90;;;;;;5028914;28;20213;-76
2023/10/15 14:32:53;;;;;;;4.53;1.10;;;11.40;99.90;;;;;;5069570;28;20033;-76
2023/10/15 14:35:40;;;;;;;3.28;0.90;;;11.50;99.90;;;;;;5060301;28;20645;-76
2023/10/15 14:38:29;;;;;;;3.15;1.08;;;11.40;99.90;;;;;;5064074;28;20457;-76
2023/10/15 14:41:17;;;;;;;3.70;1.10;;;11.40;99.90;;;;;;5065320;28;20450;-76
2023/10/15 14:44:04;;;;;;;6.38;1.20;;;11.20;99.90;;;;;;5055841;28;20037;-76
2023/10/15 14:46:50;;;;;;;3.30;0.93;;;11.00;99.90;;;;;;5092028;28;20044;-76
2023/10/15 14:49:38;;;;;;;6.20;1.55;;;11.20;99.90;;;;;;5087124;28;20035;-77
2023/10/15 14:52:24;;;;;;;4.63;1.70;;;11.10;99.90;;;;;;5096160;28;20035;-76